createdAt,value
2023-06-30T00:00:14.701Z,98274.81
2023-06-30T00:02:43.084Z,98264.94
2023-06-30T00:05:11.120Z,98258.13
2023-06-30T00:07:38.483Z,98276.97
2023-06-30T00:10:07.344Z,98280.00
2023-06-30T00:12:34.700Z,98275.16
2023-06-30T00:15:02.130Z,98270.16
2023-06-30T00:17:28.874Z,98278.81
2023-06-30T00:19:59.029Z,98277.00
2023-06-30T00:22:26.566Z,98274.66
2023-06-30T00:24:57.291Z,98267.47
2023-06-30T00:27:25.766Z,98260.47
2023-06-30T00:29:52.544Z,98259.97
2023-06-30T00:32:19.395Z,98255.63
2023-06-30T00:34:46.144Z,98260.13
2023-06-30T00:37:12.809Z,98267.00
2023-06-30T00:39:39.415Z,98264.47
2023-06-30T00:42:06.374Z,98252.97
2023-06-30T00:44:33.031Z,98251.47
2023-06-30T00:47:03.112Z,98242.78
2023-06-30T00:49:29.979Z,98248.47
2023-06-30T00:51:56.898Z,98254.09
2023-06-30T00:54:23.670Z,98257.78
2023-06-30T00:56:50.342Z,98245.44
2023-06-30T00:59:17.075Z,98239.44
2023-06-30T01:02:19.638Z,98232.75
2023-06-30T01:05:07.426Z,98227.75
2023-06-30T01:07:53.600Z,98233.91
2023-06-30T01:10:25.952Z,98236.09
2023-06-30T01:12:53.573Z,98233.72
2023-06-30T01:15:21.400Z,98235.91
2023-06-30T01:18:01.903Z,98235.38
2023-06-30T01:20:34.370Z,98235.06
2023-06-30T01:23:03.945Z,98239.53
2023-06-30T01:25:31.147Z,98242.41
2023-06-30T01:27:59.600Z,98241.53
2023-06-30T01:30:30.781Z,98243.22
2023-06-30T01:32:59.696Z,98245.88
2023-06-30T01:35:28.735Z,98248.03
2023-06-30T01:37:56.627Z,98238.69
2023-06-30T01:40:24.002Z,98239.84
2023-06-30T01:42:58.628Z,98242.84
2023-06-30T01:45:27.863Z,98233.19
2023-06-30T01:47:55.866Z,98237.84
2023-06-30T01:50:23.631Z,98232.00
2023-06-30T01:52:51.000Z,98230.31
2023-06-30T01:55:18.259Z,98230.84
2023-06-30T01:57:45.040Z,98243.47
2023-06-30T02:00:12.332Z,98240.97
2023-06-30T02:02:39.047Z,98235.81
2023-06-30T02:05:05.882Z,98236.13
2023-06-30T02:07:33.935Z,98244.28
2023-06-30T02:10:00.792Z,98246.28
2023-06-30T02:12:27.546Z,98240.94
2023-06-30T02:14:54.543Z,98233.94
2023-06-30T02:17:29.287Z,98233.13
2023-06-30T02:19:56.020Z,98226.13
2023-06-30T02:22:22.651Z,98226.59
2023-06-30T02:24:49.306Z,98227.94
2023-06-30T02:27:17.966Z,98229.94
2023-06-30T02:29:44.975Z,98226.88
2023-06-30T02:32:11.634Z,98219.38
2023-06-30T02:34:38.247Z,98218.22
2023-06-30T02:37:05.246Z,98216.53
2023-06-30T02:39:31.947Z,98218.53
2023-06-30T02:41:58.633Z,98221.34
2023-06-30T02:44:25.398Z,98219.38
2023-06-30T02:46:52.529Z,98217.53
2023-06-30T02:49:19.141Z,98224.69
2023-06-30T02:51:45.902Z,98226.41
2023-06-30T02:54:12.511Z,98221.72
2023-06-30T02:56:39.302Z,98220.88
2023-06-30T02:59:07.255Z,98224.69
2023-06-30T03:01:34.004Z,98227.06
2023-06-30T03:04:01.437Z,98222.72
2023-06-30T03:06:28.107Z,98228.22
2023-06-30T03:08:54.774Z,98217.69
2023-06-30T03:11:21.422Z,98207.53
2023-06-30T03:13:48.252Z,98211.34
2023-06-30T03:16:14.903Z,98217.16
2023-06-30T03:18:41.747Z,98216.66
2023-06-30T03:21:08.356Z,98214.44
2023-06-30T03:23:35.013Z,98218.09
2023-06-30T03:26:02.651Z,98235.38
2023-06-30T03:28:30.440Z,98222.22
2023-06-30T03:30:57.947Z,98231.72
2023-06-30T03:33:24.699Z,98216.91
2023-06-30T03:35:51.983Z,98222.38
2023-06-30T03:38:18.713Z,98227.69
2023-06-30T03:40:45.493Z,98223.53
2023-06-30T03:43:12.373Z,98215.69
2023-06-30T03:45:39.632Z,98224.84
2023-06-30T03:48:06.562Z,98234.69
2023-06-30T03:50:33.220Z,98230.47
2023-06-30T03:52:59.904Z,98239.16
2023-06-30T03:55:26.885Z,98233.31
2023-06-30T03:57:53.641Z,98237.28
2023-06-30T04:00:23.421Z,98238.28
2023-06-30T04:02:50.088Z,98235.59
2023-06-30T04:05:22.632Z,98230.78
2023-06-30T04:07:50.042Z,98237.78
2023-06-30T04:10:16.784Z,98234.13
2023-06-30T04:12:43.850Z,98236.78
2023-06-30T04:15:11.962Z,98227.13
2023-06-30T04:17:38.854Z,98232.44
2023-06-30T04:20:10.802Z,98233.72
2023-06-30T04:22:38.500Z,98227.56
2023-06-30T04:25:07.622Z,98227.25
2023-06-30T04:27:34.560Z,98228.41
2023-06-30T04:30:01.439Z,98229.41
2023-06-30T04:32:28.081Z,98231.75
2023-06-30T04:34:54.864Z,98231.03
2023-06-30T04:37:25.199Z,98236.66
2023-06-30T04:39:52.023Z,98247.53
2023-06-30T04:42:18.693Z,98251.69
2023-06-30T04:44:45.385Z,98251.38
2023-06-30T04:47:12.066Z,98239.44
2023-06-30T04:49:38.774Z,98240.63
2023-06-30T04:52:05.871Z,98240.00
2023-06-30T04:54:35.367Z,98235.34
2023-06-30T04:57:02.056Z,98241.03
2023-06-30T04:59:28.843Z,98238.03
2023-06-30T05:01:56.204Z,98235.22
2023-06-30T05:04:23.036Z,98240.94
2023-06-30T05:06:49.726Z,98235.47
2023-06-30T05:09:17.212Z,98238.81
2023-06-30T05:11:43.840Z,98252.81
2023-06-30T05:14:10.454Z,98252.66
2023-06-30T05:16:37.120Z,98241.00
2023-06-30T05:19:04.368Z,98246.16
2023-06-30T05:21:31.064Z,98240.66
2023-06-30T05:23:57.947Z,98241.19
2023-06-30T05:26:24.597Z,98245.72
2023-06-30T05:29:03.594Z,98253.06
2023-06-30T05:31:31.719Z,98252.13
2023-06-30T05:33:58.408Z,98249.94
2023-06-30T05:36:27.132Z,98254.31
2023-06-30T05:38:53.786Z,98250.31
2023-06-30T05:41:20.481Z,98263.19
2023-06-30T05:43:47.191Z,98260.00
2023-06-30T05:46:13.915Z,98272.00
2023-06-30T05:48:40.569Z,98263.13
2023-06-30T05:51:07.433Z,98262.34
2023-06-30T05:53:34.085Z,98258.19
2023-06-30T05:56:00.910Z,98265.03
2023-06-30T05:58:27.619Z,98262.19
2023-06-30T06:00:54.359Z,98266.53
2023-06-30T06:03:21.257Z,98267.03
2023-06-30T06:05:48.414Z,98264.56
2023-06-30T06:08:15.506Z,98266.22
2023-06-30T06:10:42.223Z,98264.03
2023-06-30T06:13:09.583Z,98266.72
2023-06-30T06:15:36.270Z,98269.41
2023-06-30T06:18:03.048Z,98269.94
2023-06-30T06:20:29.906Z,98270.25
2023-06-30T06:22:56.700Z,98274.44
2023-06-30T06:25:23.310Z,98282.16
2023-06-30T06:27:49.893Z,98286.63
2023-06-30T06:30:16.509Z,98284.31
2023-06-30T06:32:43.269Z,98294.97
2023-06-30T06:35:09.952Z,98302.16
2023-06-30T06:37:37.179Z,98300.84
2023-06-30T06:40:04.160Z,98313.50
2023-06-30T06:42:30.772Z,98311.00
2023-06-30T06:44:57.511Z,98311.00
2023-06-30T06:48:01.697Z,98314.63
2023-06-30T06:50:28.507Z,98311.13
2023-06-30T06:52:55.366Z,98316.94
2023-06-30T06:55:24.203Z,98314.44
2023-06-30T06:57:50.884Z,98324.13
2023-06-30T07:00:18.148Z,98322.44
2023-06-30T07:02:44.955Z,98317.13
2023-06-30T07:05:12.282Z,98324.47
2023-06-30T07:07:39.299Z,98319.13
2023-06-30T07:10:06.969Z,98321.97
2023-06-30T07:12:33.756Z,98321.34
2023-06-30T07:15:00.448Z,98323.50
2023-06-30T07:17:27.647Z,98333.69
2023-06-30T07:19:54.308Z,98328.19
2023-06-30T07:22:22.632Z,98333.34
2023-06-30T07:24:49.775Z,98344.56
2023-06-30T07:27:16.359Z,98336.22
2023-06-30T07:29:43.081Z,98329.38
2023-06-30T07:32:09.803Z,98334.91
2023-06-30T07:34:38.395Z,98339.44
2023-06-30T07:37:06.194Z,98341.97
2023-06-30T07:39:34.713Z,98338.94
2023-06-30T07:42:01.684Z,98344.59
2023-06-30T07:44:28.352Z,98349.63
2023-06-30T07:46:55.057Z,98349.78
2023-06-30T07:49:24.690Z,98356.28
2023-06-30T07:51:51.982Z,98358.44
2023-06-30T07:54:18.756Z,98365.78
2023-06-30T07:56:47.139Z,98357.59
2023-06-30T07:59:13.789Z,98362.59
2023-06-30T08:01:40.401Z,98370.97
2023-06-30T08:04:10.521Z,98372.97
2023-06-30T08:06:37.479Z,98370.50
2023-06-30T08:09:04.956Z,98365.13
2023-06-30T08:11:32.062Z,98369.16
2023-06-30T08:14:00.887Z,98362.97
2023-06-30T08:16:27.634Z,98366.66
2023-06-30T08:18:54.692Z,98369.81
2023-06-30T08:21:23.520Z,98371.31
2023-06-30T08:23:50.197Z,98365.34
2023-06-30T08:26:17.371Z,98364.66
2023-06-30T08:28:44.954Z,98378.19
2023-06-30T08:31:11.725Z,98381.19
2023-06-30T08:33:41.215Z,98381.34
2023-06-30T08:36:08.301Z,98378.03
2023-06-30T08:38:35.638Z,98379.19
2023-06-30T08:41:04.777Z,98373.03
2023-06-30T08:43:33.322Z,98382.53
2023-06-30T08:46:03.279Z,98385.03
2023-06-30T08:48:31.587Z,98390.03
2023-06-30T08:51:01.992Z,98378.16
2023-06-30T08:53:30.217Z,98367.66
2023-06-30T08:55:59.265Z,98381.66
2023-06-30T08:58:29.338Z,98387.34
2023-06-30T09:00:59.047Z,98390.34
2023-06-30T09:03:27.331Z,98381.00
2023-06-30T09:05:56.925Z,98377.31
2023-06-30T09:08:27.872Z,98379.66
2023-06-30T09:10:56.128Z,98377.31
2023-06-30T09:13:25.612Z,98384.13
2023-06-30T09:15:56.785Z,98375.78
2023-06-30T09:18:24.057Z,98378.13
2023-06-30T09:20:51.091Z,98380.16
2023-06-30T09:23:18.226Z,98374.63
2023-06-30T09:25:45.341Z,98376.47
2023-06-30T09:28:15.024Z,98383.31
2023-06-30T09:30:45.709Z,98386.50
2023-06-30T09:33:17.791Z,98378.16
2023-06-30T09:35:47.969Z,98378.13
2023-06-30T09:38:20.920Z,98378.19
2023-06-30T09:40:50.081Z,98383.34
2023-06-30T09:43:23.044Z,98383.53
2023-06-30T09:46:03.161Z,98384.09
2023-06-30T09:48:36.447Z,98380.94
2023-06-30T09:51:05.996Z,98383.53
2023-06-30T09:53:39.293Z,98377.66
2023-06-30T09:56:08.667Z,98380.16
2023-06-30T09:58:37.850Z,98382.47
2023-06-30T10:01:04.591Z,98385.31
2023-06-30T10:03:33.666Z,98372.09
2023-06-30T10:06:01.700Z,98380.59
2023-06-30T10:08:29.137Z,98377.00
2023-06-30T10:10:58.068Z,98383.88
2023-06-30T10:13:26.949Z,98380.38
2023-06-30T10:15:53.731Z,98381.84
2023-06-30T10:18:28.390Z,98382.03
2023-06-30T10:20:55.149Z,98376.66
2023-06-30T10:23:24.208Z,98377.88
2023-06-30T10:25:51.951Z,98382.31
2023-06-30T10:28:19.700Z,98372.78
2023-06-30T10:30:48.042Z,98384.91
2023-06-30T10:33:14.901Z,98386.19
2023-06-30T10:35:42.775Z,98382.28
2023-06-30T10:38:11.457Z,98384.81
2023-06-30T10:40:38.117Z,98394.81
2023-06-30T10:43:07.133Z,98393.25
2023-06-30T10:46:10.435Z,98393.81
2023-06-30T10:48:40.330Z,98393.72
2023-06-30T10:51:09.227Z,98401.19
2023-06-30T10:53:36.054Z,98403.41
2023-06-30T10:56:03.883Z,98397.09
2023-06-30T10:58:32.950Z,98396.25
2023-06-30T11:01:07.182Z,98386.44
2023-06-30T11:03:59.464Z,98383.91
2023-06-30T11:06:27.457Z,98384.28
2023-06-30T11:09:02.045Z,98389.94
2023-06-30T11:11:29.144Z,98390.09
2023-06-30T11:14:08.555Z,98386.59
2023-06-30T11:17:03.222Z,98392.25
2023-06-30T11:19:29.849Z,98390.44
2023-06-30T11:22:21.860Z,98382.75
2023-06-30T11:24:49.084Z,98369.91
2023-06-30T11:27:16.811Z,98375.53
2023-06-30T11:29:44.063Z,98373.25
2023-06-30T11:32:11.039Z,98373.19
2023-06-30T11:34:38.120Z,98375.38
2023-06-30T11:37:08.209Z,98380.91
2023-06-30T11:39:37.843Z,98378.78
2023-06-30T11:42:04.591Z,98379.00
2023-06-30T11:44:36.740Z,98381.66
2023-06-30T11:47:03.732Z,98378.03
2023-06-30T11:49:30.721Z,98375.97
2023-06-30T11:51:57.433Z,98373.34
2023-06-30T11:54:34.304Z,98377.47
2023-06-30T11:57:01.550Z,98375.88
2023-06-30T11:59:29.031Z,98380.06
2023-06-30T12:01:55.689Z,98373.88
2023-06-30T12:04:22.535Z,98369.63
2023-06-30T12:06:50.262Z,98369.47
2023-06-30T12:09:17.152Z,98368.03
2023-06-30T12:11:45.896Z,98366.91
2023-06-30T12:14:16.646Z,98366.50
2023-06-30T12:16:44.302Z,98363.94
2023-06-30T12:19:11.621Z,98370.63
2023-06-30T12:21:52.102Z,98368.81
2023-06-30T12:24:22.879Z,98372.16
2023-06-30T12:26:50.936Z,98363.66
2023-06-30T12:29:18.559Z,98366.59
2023-06-30T12:31:49.075Z,98364.72
2023-06-30T12:34:37.465Z,98355.38
2023-06-30T12:37:04.742Z,98363.25
2023-06-30T12:39:31.439Z,98364.72
2023-06-30T12:41:58.146Z,98365.09
2023-06-30T12:44:25.181Z,98354.88
2023-06-30T12:47:09.422Z,98359.69
2023-06-30T12:49:38.458Z,98359.31
2023-06-30T12:52:05.733Z,98353.53
2023-06-30T12:54:33.328Z,98347.03
2023-06-30T12:57:00.061Z,98339.91
2023-06-30T12:59:26.844Z,98334.00
2023-06-30T13:01:54.024Z,98330.94
2023-06-30T13:04:20.897Z,98324.66
2023-06-30T13:06:47.585Z,98323.25
2023-06-30T13:09:15.317Z,98323.41
2023-06-30T13:11:42.737Z,98316.19
2023-06-30T13:14:12.031Z,98327.78
2023-06-30T13:16:40.462Z,98317.31
2023-06-30T13:19:07.131Z,98326.53
2023-06-30T13:21:33.835Z,98322.19
2023-06-30T13:24:00.684Z,98318.22
2023-06-30T13:26:27.297Z,98313.91
2023-06-30T13:28:53.960Z,98317.53
2023-06-30T13:31:20.618Z,98327.13
2023-06-30T13:33:49.377Z,98311.97
2023-06-30T13:36:16.023Z,98320.50
2023-06-30T13:38:44.500Z,98319.97
2023-06-30T13:41:11.265Z,98312.25
2023-06-30T13:43:37.915Z,98311.66
2023-06-30T13:46:05.654Z,98305.91
2023-06-30T13:48:32.994Z,98302.19
2023-06-30T13:50:59.910Z,98310.19
2023-06-30T13:53:26.631Z,98301.22
2023-06-30T13:55:53.755Z,98283.28
2023-06-30T13:58:20.707Z,98284.06
2023-06-30T14:00:48.178Z,98278.97
2023-06-30T14:03:15.681Z,98281.13
2023-06-30T14:05:47.480Z,98281.69
2023-06-30T14:08:14.325Z,98274.13
2023-06-30T14:10:40.921Z,98275.31
2023-06-30T14:13:07.607Z,98261.97
2023-06-30T14:15:34.426Z,98264.28
2023-06-30T14:18:01.142Z,98263.88
2023-06-30T14:20:28.007Z,98258.44
2023-06-30T14:22:54.613Z,98245.22
2023-06-30T14:25:23.145Z,98240.38
2023-06-30T14:27:50.374Z,98237.91
2023-06-30T14:30:17.227Z,98242.16
2023-06-30T14:32:44.543Z,98231.41
2023-06-30T14:35:11.839Z,98229.59
2023-06-30T14:37:38.708Z,98245.91
2023-06-30T14:40:09.676Z,98242.03
2023-06-30T14:42:36.367Z,98235.50
2023-06-30T14:45:04.895Z,98235.91
2023-06-30T14:47:31.639Z,98233.19
2023-06-30T14:49:58.854Z,98241.16
2023-06-30T14:52:26.066Z,98231.44
2023-06-30T14:54:52.739Z,98234.03
2023-06-30T14:57:19.414Z,98236.75
2023-06-30T14:59:46.043Z,98234.66
2023-06-30T15:02:12.837Z,98234.34
2023-06-30T15:04:39.726Z,98233.75
2023-06-30T15:07:06.628Z,98235.16
2023-06-30T15:09:33.279Z,98230.38
2023-06-30T15:11:59.937Z,98224.97
2023-06-30T15:14:29.488Z,98223.63
2023-06-30T15:16:56.088Z,98211.56
2023-06-30T15:19:22.746Z,98223.63
2023-06-30T15:21:53.263Z,98223.59
2023-06-30T15:24:19.753Z,98216.44
2023-06-30T15:26:46.478Z,98210.88
2023-06-30T15:29:13.234Z,98217.19
2023-06-30T15:31:40.852Z,98218.72
2023-06-30T15:34:07.764Z,98214.09
2023-06-30T15:36:34.584Z,98212.38
2023-06-30T15:39:02.073Z,98198.09
2023-06-30T15:41:28.748Z,98198.69
2023-06-30T15:43:55.378Z,98210.97
2023-06-30T15:46:22.082Z,98207.13
2023-06-30T15:48:48.782Z,98195.00
2023-06-30T15:51:15.582Z,98211.47
2023-06-30T15:53:42.302Z,98211.97
2023-06-30T15:56:09.017Z,98208.38
2023-06-30T15:58:35.655Z,98209.28
2023-06-30T16:01:02.227Z,98207.63
2023-06-30T16:03:31.254Z,98205.19
2023-06-30T16:05:58.091Z,98206.34
2023-06-30T16:08:24.780Z,98203.63
2023-06-30T16:10:51.898Z,98204.91
2023-06-30T16:13:18.596Z,98205.88
2023-06-30T16:15:45.698Z,98203.59
2023-06-30T16:18:12.771Z,98192.59
2023-06-30T16:20:39.466Z,98199.88
2023-06-30T16:23:06.072Z,98191.44
2023-06-30T16:25:32.968Z,98197.63
2023-06-30T16:27:59.641Z,98185.69
2023-06-30T16:30:31.334Z,98189.97
2023-06-30T16:32:58.554Z,98195.56
2023-06-30T16:35:26.141Z,98194.66
2023-06-30T16:37:53.528Z,98189.88
2023-06-30T16:40:20.882Z,98185.22
2023-06-30T16:42:48.106Z,98191.13
2023-06-30T16:45:14.891Z,98183.47
2023-06-30T16:47:43.395Z,98177.00
2023-06-30T16:50:11.828Z,98189.50
2023-06-30T16:52:39.817Z,98173.78
2023-06-30T16:55:07.833Z,98185.47
2023-06-30T16:57:34.467Z,98186.31
2023-06-30T17:00:06.089Z,98186.72
2023-06-30T17:02:34.068Z,98184.19
2023-06-30T17:05:00.878Z,98180.88
2023-06-30T17:07:27.719Z,98188.19
2023-06-30T17:09:54.667Z,98180.44
2023-06-30T17:12:22.007Z,98198.31
2023-06-30T17:14:48.678Z,98190.00
2023-06-30T17:17:15.423Z,98192.03
2023-06-30T17:19:42.284Z,98194.56
2023-06-30T17:22:09.296Z,98194.81
2023-06-30T17:24:35.912Z,98202.72
2023-06-30T17:27:02.523Z,98197.34
2023-06-30T17:29:29.179Z,98204.41
2023-06-30T17:31:55.830Z,98199.81
2023-06-30T17:34:22.986Z,98206.50
2023-06-30T17:36:59.924Z,98204.59
2023-06-30T17:39:26.594Z,98205.09
2023-06-30T17:41:53.241Z,98198.84
2023-06-30T17:44:20.722Z,98204.00
2023-06-30T17:46:47.537Z,98206.72
2023-06-30T17:49:26.097Z,98207.25
2023-06-30T17:51:53.039Z,98201.75
2023-06-30T17:54:21.942Z,98209.03
2023-06-30T17:56:49.417Z,98205.47
2023-06-30T17:59:17.131Z,98212.59
2023-06-30T18:01:47.020Z,98213.47
2023-06-30T18:04:15.224Z,98217.09
2023-06-30T18:07:13.228Z,98213.06
2023-06-30T18:09:45.090Z,98213.97
2023-06-30T18:12:12.390Z,98214.53
2023-06-30T18:14:42.277Z,98213.56
2023-06-30T18:17:09.134Z,98220.19
2023-06-30T18:19:36.789Z,98211.63
2023-06-30T18:22:03.991Z,98217.16
2023-06-30T18:24:30.681Z,98221.25
2023-06-30T18:26:57.379Z,98221.13
2023-06-30T18:29:24.838Z,98216.44
2023-06-30T18:31:53.586Z,98226.69
2023-06-30T18:34:22.438Z,98222.66
2023-06-30T18:36:49.156Z,98221.88
2023-06-30T18:39:16.925Z,98227.63
2023-06-30T18:41:44.413Z,98223.28
2023-06-30T18:44:13.059Z,98236.38
2023-06-30T18:46:39.764Z,98233.22
2023-06-30T18:54:49.148Z,98243.06
2023-06-30T18:57:15.771Z,98247.34
2023-06-30T18:59:44.623Z,98249.88
2023-06-30T19:02:11.458Z,98252.91
2023-06-30T19:04:38.182Z,98248.81
2023-06-30T19:07:05.177Z,98249.81
2023-06-30T19:09:31.839Z,98256.53
2023-06-30T19:11:59.789Z,98254.72
2023-06-30T19:14:26.592Z,98250.69
2023-06-30T19:16:53.918Z,98248.22
2023-06-30T19:19:22.220Z,98247.91
2023-06-30T19:21:48.880Z,98261.97
2023-06-30T19:24:16.313Z,98261.34
2023-06-30T19:26:43.048Z,98259.84
2023-06-30T19:29:09.647Z,98262.38
2023-06-30T19:31:37.921Z,98260.41
2023-06-30T19:34:04.678Z,98262.06
2023-06-30T19:36:33.547Z,98268.78
2023-06-30T19:39:00.507Z,98265.91
2023-06-30T19:41:28.009Z,98265.75
2023-06-30T19:43:55.080Z,98264.13
2023-06-30T19:46:21.819Z,98275.47
2023-06-30T19:48:48.496Z,98271.16
2023-06-30T19:51:15.302Z,98282.50
2023-06-30T19:53:42.005Z,98275.16
2023-06-30T19:56:14.301Z,98278.31
2023-06-30T19:58:44.220Z,98282.81
2023-06-30T20:01:10.909Z,98278.16
2023-06-30T20:03:38.367Z,98284.66
2023-06-30T20:06:05.141Z,98288.16
2023-06-30T20:08:31.762Z,98290.75
2023-06-30T20:10:58.512Z,98292.59
2023-06-30T20:13:25.153Z,98293.56
2023-06-30T20:15:51.772Z,98288.19
2023-06-30T20:18:18.742Z,98291.00
2023-06-30T20:20:46.399Z,98293.81
2023-06-30T20:23:13.077Z,98293.94
2023-06-30T20:25:39.710Z,98295.88
2023-06-30T20:28:06.347Z,98299.34
2023-06-30T20:30:32.958Z,98293.13
2023-06-30T20:32:59.881Z,98293.09
2023-06-30T20:35:26.510Z,98291.06
2023-06-30T20:37:53.260Z,98283.97
2023-06-30T20:40:19.905Z,98283.63
2023-06-30T20:42:46.686Z,98286.84
2023-06-30T20:45:13.411Z,98284.97
2023-06-30T20:47:40.476Z,98291.38
2023-06-30T20:50:09.318Z,98288.50
2023-06-30T20:52:36.746Z,98290.78
2023-06-30T20:55:03.642Z,98289.03
2023-06-30T20:57:30.300Z,98284.03
2023-06-30T20:59:56.941Z,98285.56
2023-06-30T21:02:23.979Z,98283.34
2023-06-30T21:04:50.710Z,98281.28
2023-06-30T21:07:18.460Z,98287.16
2023-06-30T21:09:45.086Z,98282.63
2023-06-30T21:12:11.664Z,98277.50
2023-06-30T21:14:38.620Z,98284.25
2023-06-30T21:17:05.638Z,98286.00
2023-06-30T21:19:32.457Z,98288.72
2023-06-30T21:22:03.254Z,98279.06
2023-06-30T21:24:30.712Z,98279.69
2023-06-30T21:26:58.148Z,98278.00
2023-06-30T21:29:24.722Z,98285.22
2023-06-30T21:31:51.420Z,98279.34
2023-06-30T21:34:18.102Z,98287.22
2023-06-30T21:36:44.813Z,98284.13
2023-06-30T21:39:11.514Z,98275.22
2023-06-30T21:41:41.189Z,98280.13
2023-06-30T21:44:08.222Z,98271.06
2023-06-30T21:46:35.127Z,98281.41
2023-06-30T21:49:01.981Z,98280.28
2023-06-30T21:51:28.710Z,98270.25
2023-06-30T21:53:57.004Z,98278.63
2023-06-30T21:56:23.613Z,98278.38
2023-06-30T21:58:51.823Z,98278.25
2023-06-30T22:01:22.769Z,98275.88
2023-06-30T22:03:52.551Z,98274.47
2023-06-30T22:06:19.219Z,98268.88
2023-06-30T22:08:45.843Z,98272.41
2023-06-30T22:11:12.499Z,98269.59
2023-06-30T22:13:39.161Z,98269.75
2023-06-30T22:16:06.297Z,98268.91
2023-06-30T22:18:33.105Z,98269.31
2023-06-30T22:20:59.826Z,98271.69
2023-06-30T22:23:26.710Z,98270.44
2023-06-30T22:25:53.823Z,98275.44
2023-06-30T22:28:20.499Z,98275.84
2023-06-30T22:30:49.829Z,98271.31
2023-06-30T22:33:16.619Z,98269.09
2023-06-30T22:35:43.205Z,98276.59
2023-06-30T22:38:10.796Z,98271.84
2023-06-30T22:40:37.441Z,98274.91
2023-06-30T22:43:04.074Z,98271.69
2023-06-30T22:45:30.744Z,98272.38
2023-06-30T22:47:57.453Z,98261.91
2023-06-30T22:50:24.079Z,98266.06
2023-06-30T22:52:50.795Z,98268.41
2023-06-30T22:55:17.393Z,98258.47
2023-06-30T22:57:44.032Z,98260.66
2023-06-30T23:00:11.116Z,98264.16
2023-06-30T23:02:37.946Z,98260.66
2023-06-30T23:05:05.140Z,98262.75
2023-06-30T23:07:31.810Z,98263.03
2023-06-30T23:09:58.605Z,98254.63
2023-06-30T23:12:25.307Z,98254.19
2023-06-30T23:14:52.569Z,98262.53
2023-06-30T23:17:25.976Z,98259.44
2023-06-30T23:19:53.002Z,98253.94
2023-06-30T23:22:20.765Z,98252.41
2023-06-30T23:24:48.142Z,98247.50
2023-06-30T23:27:15.840Z,98248.75
2023-06-30T23:29:45.887Z,98249.94
2023-06-30T23:32:16.665Z,98253.00
2023-06-30T23:34:44.392Z,98252.16
2023-06-30T23:37:13.249Z,98249.84
2023-06-30T23:39:40.828Z,98257.94
2023-06-30T23:42:08.829Z,98251.09
2023-06-30T23:44:36.079Z,98249.78
2023-06-30T23:47:05.347Z,98243.34
2023-06-30T23:49:32.967Z,98248.63
2023-06-30T23:51:59.964Z,98249.00
2023-06-30T23:54:26.633Z,98246.50
2023-06-30T23:56:53.316Z,98244.09
2023-06-30T23:59:19.942Z,98238.38
